sensor_id;sensor_type;location;lat;lon;timestamp;P1;durP1;ratioP1;P2;durP2;ratioP2
21128;SDS011;10722;51.910;8.352;2022-07-01T00:01:51;25.15;;;16.02;;
21128;SDS011;10722;51.910;8.352;2022-07-01T00:04:36;18.92;;;11.00;;
21128;SDS011;10722;51.910;8.352;2022-07-01T00:07:21;22.35;;;10.80;;
21128;SDS011;10722;51.910;8.352;2022-07-01T00:10:07;22.05;;;11.23;;
21128;SDS011;10722;51.910;8.352;2022-07-01T00:12:53;23.98;;;11.52;;
21128;SDS011;10722;51.910;8.352;2022-07-01T00:15:38;22.35;;;13.63;;
21128;SDS011;10722;51.910;8.352;2022-07-01T00:18:23;20.05;;;12.43;;
21128;SDS011;10722;51.910;8.352;2022-07-01T00:21:09;21.75;;;11.75;;
21128;SDS011;10722;51.910;8.352;2022-07-01T00:23:58;22.50;;;12.05;;
21128;SDS011;10722;51.910;8.352;2022-07-01T00:26:44;21.95;;;12.38;;
21128;SDS011;10722;51.910;8.352;2022-07-01T00:29:29;21.52;;;11.93;;
21128;SDS011;10722;51.910;8.352;2022-07-01T00:32:15;18.83;;;10.35;;
21128;SDS011;10722;51.910;8.352;2022-07-01T00:35:00;18.67;;;10.00;;
21128;SDS011;10722;51.910;8.352;2022-07-01T00:37:46;17.63;;;9.82;;
21128;SDS011;10722;51.910;8.352;2022-07-01T00:40:31;25.13;;;9.98;;
21128;SDS011;10722;51.910;8.352;2022-07-01T00:43:17;17.25;;;10.05;;
21128;SDS011;10722;51.910;8.352;2022-07-01T00:46:12;20.88;;;10.20;;
21128;SDS011;10722;51.910;8.352;2022-07-01T00:48:58;19.92;;;10.30;;
21128;SDS011;10722;51.910;8.352;2022-07-01T00:51:43;19.98;;;9.38;;
21128;SDS011;10722;51.910;8.352;2022-07-01T00:54:30;19.20;;;8.85;;
21128;SDS011;10722;51.910;8.352;2022-07-01T00:57:16;18.23;;;8.57;;
21128;SDS011;10722;51.910;8.352;2022-07-01T01:00:03;14.05;;;7.00;;
21128;SDS011;10722;51.910;8.352;2022-07-01T01:02:50;15.98;;;7.03;;
21128;SDS011;10722;51.910;8.352;2022-07-01T01:05:36;15.57;;;6.78;;
21128;SDS011;10722;51.910;8.352;2022-07-01T01:08:21;15.73;;;7.32;;
21128;SDS011;10722;51.910;8.352;2022-07-01T01:11:07;16.63;;;7.13;;
21128;SDS011;10722;51.910;8.352;2022-07-01T01:13:52;15.05;;;6.40;;
21128;SDS011;10722;51.910;8.352;2022-07-01T01:16:38;12.52;;;6.30;;
21128;SDS011;10722;51.910;8.352;2022-07-01T01:19:23;14.82;;;6.05;;
21128;SDS011;10722;51.910;8.352;2022-07-01T01:22:09;14.70;;;5.93;;
21128;SDS011;10722;51.910;8.352;2022-07-01T01:24:55;15.00;;;6.13;;
21128;SDS011;10722;51.910;8.352;2022-07-01T01:27:42;12.45;;;5.40;;
21128;SDS011;10722;51.910;8.352;2022-07-01T01:30:28;14.23;;;5.70;;
21128;SDS011;10722;51.910;8.352;2022-07-01T01:33:13;13.25;;;6.43;;
21128;SDS011;10722;51.910;8.352;2022-07-01T01:35:58;11.52;;;4.75;;
21128;SDS011;10722;51.910;8.352;2022-07-01T01:38:44;13.63;;;5.00;;
21128;SDS011;10722;51.910;8.352;2022-07-01T01:41:29;13.55;;;5.63;;
21128;SDS011;10722;51.910;8.352;2022-07-01T01:44:14;12.23;;;4.88;;
21128;SDS011;10722;51.910;8.352;2022-07-01T01:46:59;11.27;;;4.80;;
21128;SDS011;10722;51.910;8.352;2022-07-01T01:49:45;13.40;;;6.00;;
21128;SDS011;10722;51.910;8.352;2022-07-01T01:52:30;14.48;;;5.82;;
21128;SDS011;10722;51.910;8.352;2022-07-01T01:55:15;13.38;;;5.57;;
21128;SDS011;10722;51.910;8.352;2022-07-01T01:58:01;12.00;;;5.55;;
21128;SDS011;10722;51.910;8.352;2022-07-01T02:00:46;13.25;;;6.95;;
21128;SDS011;10722;51.910;8.352;2022-07-01T02:03:32;15.35;;;6.75;;
21128;SDS011;10722;51.910;8.352;2022-07-01T02:06:18;15.20;;;7.55;;
21128;SDS011;10722;51.910;8.352;2022-07-01T02:09:04;15.63;;;7.47;;
21128;SDS011;10722;51.910;8.352;2022-07-01T02:11:49;16.98;;;7.40;;
21128;SDS011;10722;51.910;8.352;2022-07-01T02:14:34;16.52;;;8.32;;
21128;SDS011;10722;51.910;8.352;2022-07-01T02:17:19;16.48;;;8.02;;
21128;SDS011;10722;51.910;8.352;2022-07-01T02:20:05;20.02;;;9.55;;
21128;SDS011;10722;51.910;8.352;2022-07-01T02:22:50;18.70;;;10.00;;
21128;SDS011;10722;51.910;8.352;2022-07-01T02:25:36;17.02;;;10.00;;
21128;SDS011;10722;51.910;8.352;2022-07-01T02:28:21;19.52;;;10.63;;
21128;SDS011;10722;51.910;8.352;2022-07-01T02:31:07;18.35;;;10.57;;
21128;SDS011;10722;51.910;8.352;2022-07-01T02:33:52;19.58;;;11.02;;
21128;SDS011;10722;51.910;8.352;2022-07-01T02:36:38;19.98;;;11.10;;
21128;SDS011;10722;51.910;8.352;2022-07-01T02:39:23;17.95;;;11.02;;
21128;SDS011;10722;51.910;8.352;2022-07-01T02:42:09;21.00;;;12.48;;
21128;SDS011;10722;51.910;8.352;2022-07-01T02:44:54;23.80;;;12.50;;
21128;SDS011;10722;51.910;8.352;2022-07-01T02:47:40;24.83;;;13.60;;
21128;SDS011;10722;51.910;8.352;2022-07-01T02:50:26;22.17;;;14.05;;
21128;SDS011;10722;51.910;8.352;2022-07-01T02:53:15;23.38;;;16.17;;
21128;SDS011;10722;51.910;8.352;2022-07-01T02:56:00;27.27;;;17.48;;
21128;SDS011;10722;51.910;8.352;2022-07-01T02:58:45;28.17;;;17.20;;
21128;SDS011;10722;51.910;8.352;2022-07-01T03:01:31;25.13;;;17.38;;
21128;SDS011;10722;51.910;8.352;2022-07-01T03:04:17;27.77;;;16.92;;
21128;SDS011;10722;51.910;8.352;2022-07-01T03:07:02;25.67;;;18.23;;
21128;SDS011;10722;51.910;8.352;2022-07-01T03:09:47;28.70;;;19.27;;
21128;SDS011;10722;51.910;8.352;2022-07-01T03:12:33;27.40;;;19.33;;
21128;SDS011;10722;51.910;8.352;2022-07-01T03:15:18;29.02;;;20.15;;
21128;SDS011;10722;51.910;8.352;2022-07-01T03:18:04;28.90;;;20.45;;
21128;SDS011;10722;51.910;8.352;2022-07-01T03:20:49;31.13;;;21.38;;
21128;SDS011;10722;51.910;8.352;2022-07-01T03:23:34;31.73;;;21.42;;
21128;SDS011;10722;51.910;8.352;2022-07-01T03:26:20;34.17;;;22.90;;
21128;SDS011;10722;51.910;8.352;2022-07-01T03:29:05;34.03;;;23.48;;
21128;SDS011;10722;51.910;8.352;2022-07-01T03:31:51;36.80;;;24.45;;
21128;SDS011;10722;51.910;8.352;2022-07-01T03:34:37;35.28;;;24.80;;
21128;SDS011;10722;51.910;8.352;2022-07-01T03:37:23;35.25;;;24.77;;
21128;SDS011;10722;51.910;8.352;2022-07-01T03:40:09;37.97;;;26.52;;
21128;SDS011;10722;51.910;8.352;2022-07-01T03:42:55;39.08;;;26.98;;
21128;SDS011;10722;51.910;8.352;2022-07-01T03:45:41;39.30;;;25.98;;
21128;SDS011;10722;51.910;8.352;2022-07-01T03:48:26;39.65;;;26.17;;
21128;SDS011;10722;51.910;8.352;2022-07-01T03:51:11;43.83;;;26.92;;
21128;SDS011;10722;51.910;8.352;2022-07-01T03:53:56;42.25;;;27.00;;
21128;SDS011;10722;51.910;8.352;2022-07-01T03:56:42;39.80;;;27.05;;
21128;SDS011;10722;51.910;8.352;2022-07-01T03:59:28;41.13;;;27.25;;
21128;SDS011;10722;51.910;8.352;2022-07-01T04:02:16;40.63;;;28.05;;
21128;SDS011;10722;51.910;8.352;2022-07-01T04:05:01;45.53;;;29.33;;
21128;SDS011;10722;51.910;8.352;2022-07-01T04:07:46;44.28;;;28.10;;
21128;SDS011;10722;51.910;8.352;2022-07-01T04:10:32;46.13;;;29.98;;
21128;SDS011;10722;51.910;8.352;2022-07-01T04:13:18;40.65;;;27.05;;
21128;SDS011;10722;51.910;8.352;2022-07-01T04:16:14;44.63;;;29.30;;
21128;SDS011;10722;51.910;8.352;2022-07-01T04:18:59;47.92;;;31.33;;
21128;SDS011;10722;51.910;8.352;2022-07-01T04:21:45;47.90;;;30.98;;
21128;SDS011;10722;51.910;8.352;2022-07-01T04:24:30;44.00;;;30.25;;
21128;SDS011;10722;51.910;8.352;2022-07-01T04:27:16;42.08;;;28.92;;
21128;SDS011;10722;51.910;8.352;2022-07-01T04:30:01;48.78;;;30.88;;
21128;SDS011;10722;51.910;8.352;2022-07-01T04:32:46;49.00;;;31.38;;
21128;SDS011;10722;51.910;8.352;2022-07-01T04:35:32;50.60;;;31.95;;
21128;SDS011;10722;51.910;8.352;2022-07-01T04:38:17;50.50;;;32.03;;
21128;SDS011;10722;51.910;8.352;2022-07-01T04:41:03;42.28;;;29.48;;
21128;SDS011;10722;51.910;8.352;2022-07-01T04:43:48;42.90;;;28.90;;
21128;SDS011;10722;51.910;8.352;2022-07-01T04:46:34;41.22;;;28.00;;
21128;SDS011;10722;51.910;8.352;2022-07-01T04:49:19;40.90;;;27.33;;
21128;SDS011;10722;51.910;8.352;2022-07-01T04:52:04;41.80;;;26.42;;
21128;SDS011;10722;51.910;8.352;2022-07-01T04:54:50;38.70;;;25.00;;
21128;SDS011;10722;51.910;8.352;2022-07-01T04:57:35;43.25;;;26.60;;
21128;SDS011;10722;51.910;8.352;2022-07-01T05:00:21;43.40;;;26.63;;
21128;SDS011;10722;51.910;8.352;2022-07-01T05:03:06;39.70;;;23.83;;
21128;SDS011;10722;51.910;8.352;2022-07-01T05:05:51;43.55;;;25.25;;
21128;SDS011;10722;51.910;8.352;2022-07-01T05:08:37;41.33;;;24.85;;
21128;SDS011;10722;51.910;8.352;2022-07-01T05:11:22;46.67;;;26.38;;
21128;SDS011;10722;51.910;8.352;2022-07-01T05:14:07;50.97;;;27.42;;
21128;SDS011;10722;51.910;8.352;2022-07-01T05:16:52;46.95;;;28.23;;
21128;SDS011;10722;51.910;8.352;2022-07-01T05:19:38;46.90;;;28.13;;
21128;SDS011;10722;51.910;8.352;2022-07-01T05:22:23;47.13;;;28.60;;
21128;SDS011;10722;51.910;8.352;2022-07-01T05:25:08;46.63;;;27.95;;
21128;SDS011;10722;51.910;8.352;2022-07-01T05:27:53;53.05;;;30.55;;
21128;SDS011;10722;51.910;8.352;2022-07-01T05:30:39;53.60;;;31.35;;
21128;SDS011;10722;51.910;8.352;2022-07-01T05:33:24;51.00;;;31.08;;
21128;SDS011;10722;51.910;8.352;2022-07-01T05:36:10;52.20;;;31.35;;
21128;SDS011;10722;51.910;8.352;2022-07-01T05:38:55;61.72;;;35.05;;
21128;SDS011;10722;51.910;8.352;2022-07-01T05:41:40;66.45;;;38.05;;
21128;SDS011;10722;51.910;8.352;2022-07-01T05:44:26;64.22;;;37.50;;
21128;SDS011;10722;51.910;8.352;2022-07-01T05:47:11;63.65;;;37.05;;
21128;SDS011;10722;51.910;8.352;2022-07-01T05:49:56;60.53;;;36.30;;
21128;SDS011;10722;51.910;8.352;2022-07-01T05:52:42;60.97;;;37.20;;
21128;SDS011;10722;51.910;8.352;2022-07-01T05:55:27;60.55;;;37.20;;
21128;SDS011;10722;51.910;8.352;2022-07-01T05:58:13;58.25;;;37.70;;
21128;SDS011;10722;51.910;8.352;2022-07-01T06:00:58;59.67;;;37.10;;
21128;SDS011;10722;51.910;8.352;2022-07-01T06:03:53;54.78;;;36.00;;
21128;SDS011;10722;51.910;8.352;2022-07-01T06:06:38;57.72;;;38.30;;
21128;SDS011;10722;51.910;8.352;2022-07-01T06:09:24;52.53;;;36.10;;
21128;SDS011;10722;51.910;8.352;2022-07-01T06:12:09;54.10;;;36.90;;
21128;SDS011;10722;51.910;8.352;2022-07-01T06:14:55;54.72;;;37.30;;
21128;SDS011;10722;51.910;8.352;2022-07-01T06:17:40;51.88;;;36.55;;
21128;SDS011;10722;51.910;8.352;2022-07-01T06:20:26;50.05;;;36.35;;
21128;SDS011;10722;51.910;8.352;2022-07-01T06:23:11;52.08;;;36.83;;
21128;SDS011;10722;51.910;8.352;2022-07-01T06:25:57;53.75;;;37.05;;
21128;SDS011;10722;51.910;8.352;2022-07-01T06:28:42;46.90;;;34.20;;
21128;SDS011;10722;51.910;8.352;2022-07-01T06:31:27;56.28;;;38.20;;
21128;SDS011;10722;51.910;8.352;2022-07-01T06:34:12;53.38;;;36.33;;
21128;SDS011;10722;51.910;8.352;2022-07-01T06:36:57;51.50;;;37.05;;
21128;SDS011;10722;51.910;8.352;2022-07-01T06:39:43;54.72;;;37.67;;
21128;SDS011;10722;51.910;8.352;2022-07-01T06:42:28;49.72;;;36.42;;
21128;SDS011;10722;51.910;8.352;2022-07-01T06:45:13;49.63;;;35.75;;
21128;SDS011;10722;51.910;8.352;2022-07-01T06:47:59;52.83;;;37.63;;
21128;SDS011;10722;51.910;8.352;2022-07-01T06:50:44;51.40;;;36.60;;
21128;SDS011;10722;51.910;8.352;2022-07-01T06:53:30;50.33;;;36.03;;
21128;SDS011;10722;51.910;8.352;2022-07-01T06:56:16;46.50;;;34.80;;
21128;SDS011;10722;51.910;8.352;2022-07-01T06:59:02;51.05;;;34.95;;
21128;SDS011;10722;51.910;8.352;2022-07-01T07:01:47;50.05;;;36.28;;
21128;SDS011;10722;51.910;8.352;2022-07-01T07:04:33;46.20;;;34.63;;
21128;SDS011;10722;51.910;8.352;2022-07-01T07:07:39;49.03;;;36.10;;
21128;SDS011;10722;51.910;8.352;2022-07-01T07:10:24;52.38;;;36.75;;
21128;SDS011;10722;51.910;8.352;2022-07-01T07:13:10;51.83;;;36.38;;
21128;SDS011;10722;51.910;8.352;2022-07-01T07:15:55;48.90;;;36.38;;
21128;SDS011;10722;51.910;8.352;2022-07-01T07:18:41;54.00;;;37.80;;
21128;SDS011;10722;51.910;8.352;2022-07-01T07:21:26;48.22;;;36.60;;
21128;SDS011;10722;51.910;8.352;2022-07-01T07:24:12;45.38;;;35.00;;
21128;SDS011;10722;51.910;8.352;2022-07-01T07:26:57;46.55;;;36.97;;
21128;SDS011;10722;51.910;8.352;2022-07-01T07:29:43;48.00;;;35.65;;
21128;SDS011;10722;51.910;8.352;2022-07-01T07:32:28;50.22;;;37.47;;
21128;SDS011;10722;51.910;8.352;2022-07-01T07:35:14;50.72;;;36.83;;
21128;SDS011;10722;51.910;8.352;2022-07-01T07:38:01;41.42;;;32.83;;
21128;SDS011;10722;51.910;8.352;2022-07-01T07:40:46;43.75;;;33.45;;
21128;SDS011;10722;51.910;8.352;2022-07-01T07:43:33;45.63;;;33.08;;
21128;SDS011;10722;51.910;8.352;2022-07-01T07:46:18;39.90;;;29.80;;
21128;SDS011;10722;51.910;8.352;2022-07-01T07:49:03;45.33;;;33.83;;
21128;SDS011;10722;51.910;8.352;2022-07-01T07:51:49;36.97;;;28.92;;
21128;SDS011;10722;51.910;8.352;2022-07-01T07:54:34;39.08;;;28.90;;
21128;SDS011;10722;51.910;8.352;2022-07-01T07:57:20;35.15;;;22.80;;
21128;SDS011;10722;51.910;8.352;2022-07-01T08:00:06;27.15;;;18.58;;
21128;SDS011;10722;51.910;8.352;2022-07-01T08:02:53;29.35;;;18.88;;
21128;SDS011;10722;51.910;8.352;2022-07-01T08:05:39;29.45;;;18.48;;
21128;SDS011;10722;51.910;8.352;2022-07-01T08:08:24;24.98;;;16.80;;
21128;SDS011;10722;51.910;8.352;2022-07-01T08:11:09;28.13;;;17.58;;
21128;SDS011;10722;51.910;8.352;2022-07-01T08:13:55;26.67;;;18.42;;
21128;SDS011;10722;51.910;8.352;2022-07-01T08:16:40;23.83;;;17.60;;
21128;SDS011;10722;51.910;8.352;2022-07-01T08:19:26;26.92;;;17.95;;
21128;SDS011;10722;51.910;8.352;2022-07-01T08:22:11;26.25;;;17.95;;
21128;SDS011;10722;51.910;8.352;2022-07-01T08:24:57;25.40;;;17.88;;
21128;SDS011;10722;51.910;8.352;2022-07-01T08:27:42;26.67;;;17.33;;
21128;SDS011;10722;51.910;8.352;2022-07-01T08:30:34;25.23;;;16.30;;
21128;SDS011;10722;51.910;8.352;2022-07-01T08:33:19;24.05;;;16.42;;
21128;SDS011;10722;51.910;8.352;2022-07-01T08:36:06;25.83;;;16.73;;
21128;SDS011;10722;51.910;8.352;2022-07-01T08:38:52;24.55;;;15.98;;
21128;SDS011;10722;51.910;8.352;2022-07-01T08:41:39;24.25;;;16.27;;
21128;SDS011;10722;51.910;8.352;2022-07-01T08:44:25;25.75;;;15.13;;
21128;SDS011;10722;51.910;8.352;2022-07-01T08:47:11;28.08;;;16.20;;
21128;SDS011;10722;51.910;8.352;2022-07-01T08:50:03;22.85;;;15.25;;
21128;SDS011;10722;51.910;8.352;2022-07-01T08:52:49;23.92;;;14.90;;
21128;SDS011;10722;51.910;8.352;2022-07-01T08:55:34;22.20;;;15.23;;
21128;SDS011;10722;51.910;8.352;2022-07-01T08:58:20;22.75;;;14.88;;
21128;SDS011;10722;51.910;8.352;2022-07-01T09:01:13;24.50;;;15.60;;
21128;SDS011;10722;51.910;8.352;2022-07-01T09:04:16;25.25;;;16.73;;
21128;SDS011;10722;51.910;8.352;2022-07-01T09:07:07;25.85;;;19.50;;
21128;SDS011;10722;51.910;8.352;2022-07-01T09:09:54;25.58;;;19.10;;
21128;SDS011;10722;51.910;8.352;2022-07-01T09:12:40;25.70;;;19.80;;
21128;SDS011;10722;51.910;8.352;2022-07-01T09:15:27;23.63;;;17.70;;
21128;SDS011;10722;51.910;8.352;2022-07-01T09:18:17;22.65;;;16.10;;
21128;SDS011;10722;51.910;8.352;2022-07-01T09:21:02;23.05;;;14.48;;
21128;SDS011;10722;51.910;8.352;2022-07-01T09:23:53;21.02;;;13.00;;
21128;SDS011;10722;51.910;8.352;2022-07-01T09:26:38;17.00;;;9.93;;
21128;SDS011;10722;51.910;8.352;2022-07-01T09:29:28;19.15;;;10.23;;
21128;SDS011;10722;51.910;8.352;2022-07-01T09:32:17;19.08;;;10.82;;
21128;SDS011;10722;51.910;8.352;2022-07-01T09:35:04;17.67;;;11.38;;
21128;SDS011;10722;51.910;8.352;2022-07-01T09:37:54;17.77;;;11.07;;
21128;SDS011;10722;51.910;8.352;2022-07-01T09:43:39;16.17;;;8.82;;
21128;SDS011;10722;51.910;8.352;2022-07-01T09:46:25;16.70;;;10.20;;
21128;SDS011;10722;51.910;8.352;2022-07-01T09:49:10;17.30;;;10.93;;
21128;SDS011;10722;51.910;8.352;2022-07-01T09:51:55;18.88;;;9.23;;
21128;SDS011;10722;51.910;8.352;2022-07-01T09:54:40;13.50;;;7.72;;
21128;SDS011;10722;51.910;8.352;2022-07-01T09:57:25;16.52;;;7.40;;
21128;SDS011;10722;51.910;8.352;2022-07-01T10:00:11;14.63;;;7.90;;
21128;SDS011;10722;51.910;8.352;2022-07-01T10:02:59;15.93;;;8.23;;
21128;SDS011;10722;51.910;8.352;2022-07-01T10:09:24;16.40;;;8.27;;
21128;SDS011;10722;51.910;8.352;2022-07-01T10:12:18;15.90;;;8.73;;
21128;SDS011;10722;51.910;8.352;2022-07-01T10:15:07;17.00;;;9.18;;
21128;SDS011;10722;51.910;8.352;2022-07-01T10:17:55;18.67;;;9.95;;
21128;SDS011;10722;51.910;8.352;2022-07-01T10:20:45;15.80;;;9.02;;
21128;SDS011;10722;51.910;8.352;2022-07-01T10:23:38;16.33;;;8.90;;
21128;SDS011;10722;51.910;8.352;2022-07-01T10:26:29;16.98;;;9.18;;
21128;SDS011;10722;51.910;8.352;2022-07-01T10:35:27;19.20;;;10.38;;
21128;SDS011;10722;51.910;8.352;2022-07-01T10:38:12;18.85;;;10.75;;
21128;SDS011;10722;51.910;8.352;2022-07-01T10:40:57;15.05;;;9.60;;
21128;SDS011;10722;51.910;8.352;2022-07-01T10:43:43;16.52;;;10.30;;
21128;SDS011;10722;51.910;8.352;2022-07-01T10:52:20;19.73;;;12.27;;
21128;SDS011;10722;51.910;8.352;2022-07-01T10:55:07;18.52;;;11.73;;
21128;SDS011;10722;51.910;8.352;2022-07-01T10:57:53;18.35;;;12.38;;
21128;SDS011;10722;51.910;8.352;2022-07-01T11:00:43;19.42;;;12.15;;
21128;SDS011;10722;51.910;8.352;2022-07-01T11:03:33;18.27;;;11.27;;
21128;SDS011;10722;51.910;8.352;2022-07-01T11:06:20;19.75;;;12.00;;
21128;SDS011;10722;51.910;8.352;2022-07-01T11:09:06;19.65;;;10.55;;
21128;SDS011;10722;51.910;8.352;2022-07-01T11:11:51;18.48;;;10.82;;
21128;SDS011;10722;51.910;8.352;2022-07-01T11:14:38;17.85;;;10.02;;
21128;SDS011;10722;51.910;8.352;2022-07-01T11:17:26;20.50;;;9.38;;
21128;SDS011;10722;51.910;8.352;2022-07-01T11:20:13;18.65;;;9.75;;
21128;SDS011;10722;51.910;8.352;2022-07-01T11:23:05;15.85;;;8.80;;
21128;SDS011;10722;51.910;8.352;2022-07-01T11:25:50;16.00;;;8.77;;
21128;SDS011;10722;51.910;8.352;2022-07-01T11:28:39;16.85;;;8.50;;
21128;SDS011;10722;51.910;8.352;2022-07-01T11:31:29;17.13;;;9.00;;
21128;SDS011;10722;51.910;8.352;2022-07-01T11:34:17;14.88;;;7.97;;
21128;SDS011;10722;51.910;8.352;2022-07-01T11:37:10;15.35;;;8.30;;
21128;SDS011;10722;51.910;8.352;2022-07-01T11:40:08;15.43;;;8.70;;
21128;SDS011;10722;51.910;8.352;2022-07-01T11:42:55;16.33;;;7.68;;
21128;SDS011;10722;51.910;8.352;2022-07-01T11:45:41;17.80;;;8.68;;
21128;SDS011;10722;51.910;8.352;2022-07-01T11:51:21;15.50;;;7.95;;
21128;SDS011;10722;51.910;8.352;2022-07-01T11:54:07;13.85;;;7.63;;
21128;SDS011;10722;51.910;8.352;2022-07-01T11:57:10;16.02;;;7.65;;
21128;SDS011;10722;51.910;8.352;2022-07-01T12:00:07;14.93;;;7.80;;
21128;SDS011;10722;51.910;8.352;2022-07-01T12:02:55;16.52;;;8.50;;
21128;SDS011;10722;51.910;8.352;2022-07-01T12:05:41;14.05;;;7.75;;
21128;SDS011;10722;51.910;8.352;2022-07-01T12:08:26;15.73;;;7.75;;
21128;SDS011;10722;51.910;8.352;2022-07-01T12:11:12;16.08;;;8.07;;
21128;SDS011;10722;51.910;8.352;2022-07-01T12:13:58;16.70;;;7.93;;
21128;SDS011;10722;51.910;8.352;2022-07-01T12:16:43;15.43;;;8.05;;
21128;SDS011;10722;51.910;8.352;2022-07-01T12:22:34;16.33;;;8.30;;
21128;SDS011;10722;51.910;8.352;2022-07-01T12:25:19;15.85;;;7.57;;
21128;SDS011;10722;51.910;8.352;2022-07-01T12:28:05;15.45;;;7.25;;
21128;SDS011;10722;51.910;8.352;2022-07-01T12:30:58;14.68;;;7.35;;
21128;SDS011;10722;51.910;8.352;2022-07-01T12:33:51;12.60;;;6.88;;
21128;SDS011;10722;51.910;8.352;2022-07-01T12:36:36;15.48;;;6.60;;
21128;SDS011;10722;51.910;8.352;2022-07-01T12:39:21;15.13;;;7.25;;
21128;SDS011;10722;51.910;8.352;2022-07-01T12:42:07;13.82;;;6.90;;
21128;SDS011;10722;51.910;8.352;2022-07-01T12:44:53;14.02;;;6.75;;
21128;SDS011;10722;51.910;8.352;2022-07-01T12:47:40;16.13;;;6.82;;
21128;SDS011;10722;51.910;8.352;2022-07-01T12:50:29;13.15;;;5.80;;
21128;SDS011;10722;51.910;8.352;2022-07-01T12:53:19;14.45;;;5.68;;
21128;SDS011;10722;51.910;8.352;2022-07-01T12:56:05;13.93;;;6.53;;
21128;SDS011;10722;51.910;8.352;2022-07-01T12:58:50;17.15;;;6.90;;
21128;SDS011;10722;51.910;8.352;2022-07-01T13:01:36;13.43;;;6.38;;
21128;SDS011;10722;51.910;8.352;2022-07-01T13:04:25;13.50;;;5.63;;
21128;SDS011;10722;51.910;8.352;2022-07-01T13:07:11;13.65;;;5.88;;
21128;SDS011;10722;51.910;8.352;2022-07-01T13:09:57;14.00;;;5.95;;
21128;SDS011;10722;51.910;8.352;2022-07-01T13:12:42;13.40;;;6.03;;
21128;SDS011;10722;51.910;8.352;2022-07-01T13:15:28;12.73;;;5.68;;
21128;SDS011;10722;51.910;8.352;2022-07-01T13:18:14;13.93;;;4.88;;
21128;SDS011;10722;51.910;8.352;2022-07-01T13:20:59;11.27;;;5.20;;
21128;SDS011;10722;51.910;8.352;2022-07-01T13:23:45;15.30;;;5.93;;
21128;SDS011;10722;51.910;8.352;2022-07-01T13:26:30;16.38;;;6.35;;
21128;SDS011;10722;51.910;8.352;2022-07-01T13:29:15;13.48;;;5.80;;
21128;SDS011;10722;51.910;8.352;2022-07-01T13:32:01;14.45;;;6.38;;
21128;SDS011;10722;51.910;8.352;2022-07-01T13:34:46;11.85;;;5.50;;
21128;SDS011;10722;51.910;8.352;2022-07-01T13:37:32;13.65;;;5.50;;
21128;SDS011;10722;51.910;8.352;2022-07-01T13:40:18;12.50;;;5.30;;
21128;SDS011;10722;51.910;8.352;2022-07-01T13:43:03;13.43;;;5.18;;
21128;SDS011;10722;51.910;8.352;2022-07-01T13:45:48;12.55;;;5.03;;
21128;SDS011;10722;51.910;8.352;2022-07-01T13:48:34;10.75;;;4.70;;
21128;SDS011;10722;51.910;8.352;2022-07-01T13:51:19;11.07;;;4.40;;
21128;SDS011;10722;51.910;8.352;2022-07-01T13:54:05;10.45;;;4.40;;
21128;SDS011;10722;51.910;8.352;2022-07-01T13:56:50;11.98;;;4.05;;
21128;SDS011;10722;51.910;8.352;2022-07-01T13:59:36;11.65;;;4.00;;
21128;SDS011;10722;51.910;8.352;2022-07-01T14:02:25;11.95;;;3.70;;
21128;SDS011;10722;51.910;8.352;2022-07-01T14:05:11;8.82;;;3.25;;
21128;SDS011;10722;51.910;8.352;2022-07-01T14:07:57;7.07;;;3.13;;
21128;SDS011;10722;51.910;8.352;2022-07-01T14:10:42;7.80;;;3.25;;
21128;SDS011;10722;51.910;8.352;2022-07-01T14:13:27;7.75;;;2.80;;
21128;SDS011;10722;51.910;8.352;2022-07-01T14:16:13;8.90;;;3.17;;
21128;SDS011;10722;51.910;8.352;2022-07-01T14:18:58;8.80;;;2.28;;
21128;SDS011;10722;51.910;8.352;2022-07-01T14:21:44;5.95;;;2.10;;
21128;SDS011;10722;51.910;8.352;2022-07-01T14:24:29;5.80;;;1.80;;
21128;SDS011;10722;51.910;8.352;2022-07-01T14:27:15;4.55;;;1.70;;
21128;SDS011;10722;51.910;8.352;2022-07-01T14:30:00;5.63;;;1.88;;
21128;SDS011;10722;51.910;8.352;2022-07-01T14:32:45;6.38;;;1.85;;
21128;SDS011;10722;51.910;8.352;2022-07-01T14:35:31;6.07;;;1.70;;
21128;SDS011;10722;51.910;8.352;2022-07-01T14:38:16;6.18;;;1.80;;
21128;SDS011;10722;51.910;8.352;2022-07-01T14:41:01;6.40;;;1.70;;
21128;SDS011;10722;51.910;8.352;2022-07-01T14:43:46;7.32;;;1.80;;
21128;SDS011;10722;51.910;8.352;2022-07-01T14:46:32;8.25;;;1.80;;
21128;SDS011;10722;51.910;8.352;2022-07-01T14:49:17;6.18;;;1.67;;
21128;SDS011;10722;51.910;8.352;2022-07-01T14:52:03;7.00;;;1.50;;
21128;SDS011;10722;51.910;8.352;2022-07-01T14:54:49;5.03;;;1.50;;
21128;SDS011;10722;51.910;8.352;2022-07-01T14:57:35;7.57;;;1.50;;
21128;SDS011;10722;51.910;8.352;2022-07-01T15:00:21;4.90;;;1.48;;
21128;SDS011;10722;51.910;8.352;2022-07-01T15:03:06;5.00;;;1.50;;
21128;SDS011;10722;51.910;8.352;2022-07-01T15:05:51;7.32;;;1.42;;
21128;SDS011;10722;51.910;8.352;2022-07-01T15:08:38;7.32;;;1.58;;
21128;SDS011;10722;51.910;8.352;2022-07-01T15:11:24;34.80;;;24.60;;
21128;SDS011;10722;51.910;8.352;2022-07-01T15:14:09;6.90;;;1.50;;
21128;SDS011;10722;51.910;8.352;2022-07-01T15:16:55;6.10;;;1.60;;
21128;SDS011;10722;51.910;8.352;2022-07-01T15:19:41;5.28;;;1.40;;
21128;SDS011;10722;51.910;8.352;2022-07-01T15:22:26;4.15;;;1.42;;
21128;SDS011;10722;51.910;8.352;2022-07-01T15:25:11;8.45;;;1.80;;
21128;SDS011;10722;51.910;8.352;2022-07-01T15:27:56;6.82;;;1.70;;
21128;SDS011;10722;51.910;8.352;2022-07-01T15:30:41;4.68;;;1.50;;
21128;SDS011;10722;51.910;8.352;2022-07-01T15:33:27;6.88;;;1.85;;
21128;SDS011;10722;51.910;8.352;2022-07-01T15:36:12;9.35;;;1.60;;
21128;SDS011;10722;51.910;8.352;2022-07-01T15:38:58;7.68;;;1.67;;
21128;SDS011;10722;51.910;8.352;2022-07-01T15:41:43;8.07;;;1.90;;
21128;SDS011;10722;51.910;8.352;2022-07-01T15:44:30;8.75;;;1.80;;
21128;SDS011;10722;51.910;8.352;2022-07-01T15:47:16;8.90;;;1.98;;
21128;SDS011;10722;51.910;8.352;2022-07-01T15:50:02;4.97;;;1.23;;
21128;SDS011;10722;51.910;8.352;2022-07-01T15:52:47;6.18;;;1.48;;
21128;SDS011;10722;51.910;8.352;2022-07-01T15:55:33;5.88;;;1.60;;
21128;SDS011;10722;51.910;8.352;2022-07-01T15:58:19;9.02;;;1.50;;
21128;SDS011;10722;51.910;8.352;2022-07-01T16:01:04;5.78;;;1.30;;
21128;SDS011;10722;51.910;8.352;2022-07-01T16:03:50;4.13;;;1.48;;
21128;SDS011;10722;51.910;8.352;2022-07-01T16:06:38;9.10;;;1.40;;
21128;SDS011;10722;51.910;8.352;2022-07-01T16:09:25;7.05;;;1.50;;
21128;SDS011;10722;51.910;8.352;2022-07-01T16:12:12;6.50;;;1.38;;
21128;SDS011;10722;51.910;8.352;2022-07-01T16:14:58;4.50;;;1.45;;
21128;SDS011;10722;51.910;8.352;2022-07-01T16:17:45;6.57;;;1.63;;
21128;SDS011;10722;51.910;8.352;2022-07-01T16:20:33;6.40;;;1.73;;
21128;SDS011;10722;51.910;8.352;2022-07-01T16:23:27;5.82;;;1.83;;
21128;SDS011;10722;51.910;8.352;2022-07-01T16:26:18;4.75;;;1.45;;
21128;SDS011;10722;51.910;8.352;2022-07-01T16:29:04;7.18;;;1.42;;
21128;SDS011;10722;51.910;8.352;2022-07-01T16:31:50;5.60;;;1.40;;
21128;SDS011;10722;51.910;8.352;2022-07-01T16:34:36;3.30;;;1.30;;
21128;SDS011;10722;51.910;8.352;2022-07-01T16:37:21;4.75;;;1.20;;
21128;SDS011;10722;51.910;8.352;2022-07-01T16:40:12;6.00;;;1.08;;
21128;SDS011;10722;51.910;8.352;2022-07-01T16:43:00;4.85;;;1.30;;
21128;SDS011;10722;51.910;8.352;2022-07-01T16:45:48;4.35;;;1.40;;
21128;SDS011;10722;51.910;8.352;2022-07-01T16:48:38;4.10;;;1.05;;